Time;durP1;ratioP1;P1;durP2;ratioP2;P2;SDS_P1;SDS_P2;PMS_P1;PMS_P2;Temp;Humidity;BMP_temperature;BMP_pressure;BME280_temperature;BME280_humidity;BME280_pressure;Samples;Min_cycle;Max_cycle;Signal;HPM_P1;HPM_P2
2023/10/24 00:02:04;;;;;;;3.67;2.37;;;13.30;99.90;;;;;;5078219;28;20502;-78
2023/10/24 00:04:32;;;;;;;5.83;2.60;;;13.30;99.90;;;;;;5080171;28;20455;-79
2023/10/24 00:06:59;;;;;;;3.20;1.87;;;13.30;99.90;;;;;;5100360;28;20553;-79
2023/10/24 00:09:26;;;;;;;6.60;2.17;;;13.30;99.90;;;;;;5098494;28;20456;-79
2023/10/24 00:11:54;;;;;;;4.10;2.50;;;13.40;99.90;;;;;;5098848;28;20460;-79
2023/10/24 00:14:21;;;;;;;5.83;2.00;;;13.20;99.90;;;;;;5099651;28;20462;-79
2023/10/24 00:16:48;;;;;;;3.40;2.10;;;13.30;99.90;;;;;;5099715;28;20495;-79
2023/10/24 00:19:15;;;;;;;4.07;1.80;;;13.30;99.90;;;;;;5090192;28;20633;-78
2023/10/24 00:21:41;;;;;;;2.50;1.77;;;13.30;99.90;;;;;;5080933;28;20569;-79
2023/10/24 00:24:09;;;;;;;3.17;2.10;;;13.40;99.90;;;;;;5079801;28;20478;-79
2023/10/24 00:26:36;;;;;;;5.13;2.10;;;13.40;99.90;;;;;;5097520;28;20519;-79
2023/10/24 00:29:05;;;;;;;4.83;3.00;;;13.40;99.90;;;;;;5090000;28;20466;-79
2023/10/24 00:31:32;;;;;;;6.13;2.03;;;13.30;99.90;;;;;;5090690;28;20459;-79
2023/10/24 00:33:59;;;;;;;6.40;2.43;;;13.40;99.90;;;;;;5083235;28;20505;-79
2023/10/24 00:36:25;;;;;;;3.47;2.23;;;13.40;99.90;;;;;;5096869;28;20446;-79
2023/10/24 00:38:52;;;;;;;4.53;3.00;;;13.40;99.90;;;;;;5086349;28;20452;-77
2023/10/24 00:41:19;;;;;;;3.33;2.23;;;13.50;99.90;;;;;;5087637;28;20474;-79
2023/10/24 00:43:46;;;;;;;5.93;2.50;;;13.50;99.90;;;;;;5087937;28;21010;-78
2023/10/24 00:46:14;;;;;;;4.60;2.50;;;13.50;99.90;;;;;;5095773;28;20457;-78
2023/10/24 00:48:41;;;;;;;4.00;2.30;;;13.50;99.90;;;;;;5078915;28;20460;-78
2023/10/24 00:51:08;;;;;;;4.90;2.03;;;13.60;99.90;;;;;;5087840;28;20454;-79
2023/10/24 00:53:35;;;;;;;3.93;2.33;;;13.70;99.90;;;;;;5087633;28;20486;-79
2023/10/24 00:56:03;;;;;;;7.93;2.90;;;13.70;99.90;;;;;;5095682;28;20549;-77
2023/10/24 00:58:30;;;;;;;5.87;2.30;;;13.70;99.90;;;;;;5087099;28;20458;-78
2023/10/24 01:00:59;;;;;;;3.77;3.23;;;13.70;99.90;;;;;;5079081;28;21001;-79
2023/10/24 01:03:27;;;;;;;6.57;2.50;;;13.70;99.90;;;;;;5095811;28;20472;-79
2023/10/24 01:05:55;;;;;;;5.60;2.03;;;13.70;99.90;;;;;;5085929;28;20451;-77
2023/10/24 01:08:22;;;;;;;3.30;2.20;;;13.80;99.90;;;;;;4532245;28;15077560;-78
2023/10/24 01:10:49;;;;;;;7.10;2.73;;;13.70;99.90;;;;;;5088676;28;20204;-78
2023/10/24 01:13:16;;;;;;;5.00;2.07;;;13.80;99.90;;;;;;5102002;28;20484;-79
2023/10/24 01:15:43;;;;;;;5.30;1.77;;;13.80;99.90;;;;;;5103452;28;20524;-80
2023/10/24 01:18:10;;;;;;;6.77;2.53;;;13.70;99.90;;;;;;5093041;28;20462;-79
2023/10/24 01:20:39;;;;;;;3.50;2.13;;;13.70;99.90;;;;;;5090037;28;20492;-79
2023/10/24 01:23:08;;;;;;;4.90;2.57;;;13.80;99.90;;;;;;5094376;28;20488;-80
2023/10/24 01:25:38;;;;;;;7.07;2.57;;;13.80;99.90;;;;;;5097089;28;20463;-79
2023/10/24 01:28:06;;;;;;;6.07;4.27;;;13.80;99.90;;;;;;5095975;28;20461;-79
2023/10/24 01:30:33;;;;;;;3.40;1.73;;;13.90;99.90;;;;;;5095932;28;20465;-78
2023/10/24 01:33:00;;;;;;;3.97;1.93;;;13.90;99.90;;;;;;5098653;28;20480;-79
2023/10/24 01:35:27;;;;;;;3.23;1.60;;;13.90;99.90;;;;;;5096858;28;20463;-79
2023/10/24 01:37:53;;;;;;;4.90;1.90;;;13.90;99.90;;;;;;5096175;28;20452;-79
2023/10/24 01:40:21;;;;;;;3.40;1.67;;;13.90;99.90;;;;;;5100981;28;20463;-79
2023/10/24 01:42:48;;;;;;;3.40;1.70;;;14.00;99.90;;;;;;5100186;28;20473;-79
2023/10/24 01:45:15;;;;;;;2.97;1.50;;;14.00;99.90;;;;;;5092479;28;20459;-79
2023/10/24 01:47:42;;;;;;;3.27;1.80;;;14.00;99.90;;;;;;5094050;28;20454;-79
2023/10/24 01:50:10;;;;;;;4.00;1.77;;;14.00;99.90;;;;;;5098559;28;20821;-79
2023/10/24 01:52:36;;;;;;;5.27;2.43;;;14.10;99.90;;;;;;5097520;28;20472;-78
2023/10/24 01:55:04;;;;;;;2.30;1.80;;;14.10;99.90;;;;;;5098851;28;20450;-79
2023/10/24 01:57:32;;;;;;;3.13;1.50;;;14.00;99.90;;;;;;5086919;28;20455;-78
2023/10/24 01:59:59;;;;;;;2.40;1.60;;;14.10;99.90;;;;;;5078748;28;20450;-78
2023/10/24 02:02:26;;;;;;;3.67;1.37;;;14.10;99.90;;;;;;5094716;28;20493;-77
2023/10/24 02:04:53;;;;;;;3.90;1.83;;;14.10;99.90;;;;;;5096603;28;21072;-78
2023/10/24 02:07:20;;;;;;;3.10;2.10;;;14.10;99.90;;;;;;5089526;28;20455;-78
2023/10/24 02:09:47;;;;;;;5.30;1.40;;;13.90;99.90;;;;;;5095458;28;20896;-79
2023/10/24 02:12:14;;;;;;;2.63;1.37;;;14.00;99.90;;;;;;5096810;28;20835;-78
2023/10/24 02:14:42;;;;;;;3.83;1.80;;;14.00;99.90;;;;;;5087531;28;20565;-79
2023/10/24 02:17:09;;;;;;;4.20;2.37;;;14.00;99.90;;;;;;5098028;28;21182;-79
2023/10/24 02:19:36;;;;;;;3.33;1.40;;;13.90;99.90;;;;;;5093706;28;20844;-79
2023/10/24 02:22:03;;;;;;;2.70;1.57;;;14.00;99.90;;;;;;5082615;28;20486;-79
2023/10/24 02:24:30;;;;;;;2.33;1.40;;;14.00;99.90;;;;;;5097220;28;20977;-79
2023/10/24 02:26:57;;;;;;;3.83;1.50;;;14.00;99.90;;;;;;5073661;28;20491;-79
2023/10/24 02:29:24;;;;;;;6.87;2.37;;;14.00;99.90;;;;;;5094438;28;20830;-79
2023/10/24 02:31:52;;;;;;;2.20;1.50;;;14.10;99.90;;;;;;5091926;28;20818;-79
2023/10/24 02:34:19;;;;;;;5.37;1.93;;;14.10;99.90;;;;;;5096951;28;20480;-79
2023/10/24 02:36:46;;;;;;;3.60;1.40;;;14.10;99.90;;;;;;5096287;28;21149;-80
2023/10/24 02:39:13;;;;;;;3.80;1.43;;;14.10;99.90;;;;;;5088182;28;20465;-79
2023/10/24 02:41:40;;;;;;;2.93;1.17;;;14.10;99.90;;;;;;5097017;28;20535;-80
2023/10/24 02:44:07;;;;;;;2.50;1.37;;;14.10;99.90;;;;;;5098361;28;20477;-79
2023/10/24 02:46:33;;;;;;;2.07;1.30;;;14.10;99.90;;;;;;5097642;28;20464;-78
2023/10/24 02:49:02;;;;;;;3.87;1.67;;;14.10;99.90;;;;;;5084599;28;20464;-79
2023/10/24 02:51:28;;;;;;;2.47;1.37;;;14.10;99.90;;;;;;5097374;28;20459;-79
2023/10/24 02:53:55;;;;;;;2.80;1.40;;;14.00;99.90;;;;;;5098426;28;20479;-79
2023/10/24 02:56:22;;;;;;;4.90;1.60;;;14.00;99.90;;;;;;5098212;28;20453;-80
2023/10/24 02:58:49;;;;;;;4.40;1.73;;;14.00;99.90;;;;;;5082208;28;20467;-79
2023/10/24 03:01:15;;;;;;;2.63;1.60;;;14.00;99.90;;;;;;5091534;28;20491;-79
2023/10/24 03:03:42;;;;;;;3.97;1.83;;;14.10;99.90;;;;;;5097768;28;20481;-79
2023/10/24 03:06:17;;;;;;;4.27;1.43;;;14.10;99.90;;;;;;5086715;28;20451;-80
2023/10/24 03:08:44;;;;;;;2.67;1.47;;;14.10;99.90;;;;;;5091075;28;20557;-79
2023/10/24 03:11:12;;;;;;;5.07;1.60;;;14.20;99.90;;;;;;5096151;28;20448;-78
2023/10/24 03:13:38;;;;;;;2.90;1.60;;;14.20;99.90;;;;;;5096199;28;20547;-79
2023/10/24 03:16:07;;;;;;;2.53;1.50;;;14.20;99.90;;;;;;5097821;28;20458;-79
2023/10/24 03:18:34;;;;;;;3.47;1.50;;;14.30;99.90;;;;;;5093645;28;20832;-78
2023/10/24 03:21:04;;;;;;;3.30;1.30;;;14.30;99.90;;;;;;5095382;28;20462;-79
2023/10/24 03:23:32;;;;;;;3.47;1.43;;;14.30;99.90;;;;;;5096890;28;20557;-78
2023/10/24 03:25:59;;;;;;;2.60;1.47;;;14.30;99.90;;;;;;5080301;28;20458;-79
2023/10/24 03:28:26;;;;;;;2.37;1.60;;;14.20;99.90;;;;;;5091618;28;20457;-78
2023/10/24 03:31:02;;;;;;;3.03;1.70;;;14.20;99.90;;;;;;5097236;28;20952;-79
2023/10/24 03:33:29;;;;;;;2.10;1.33;;;14.10;99.90;;;;;;5089655;28;20841;-78
2023/10/24 03:35:56;;;;;;;5.00;2.13;;;14.20;99.90;;;;;;5084190;28;20452;-79
2023/10/24 03:38:23;;;;;;;5.23;1.40;;;14.20;99.90;;;;;;5082626;28;20986;-79
2023/10/24 03:40:52;;;;;;;3.53;1.70;;;14.20;99.90;;;;;;5096074;28;20444;-79
2023/10/24 03:43:19;;;;;;;3.80;1.80;;;14.20;99.90;;;;;;5096799;28;20492;-78
2023/10/24 03:45:46;;;;;;;3.43;1.97;;;14.10;99.90;;;;;;5080549;28;20540;-78
2023/10/24 03:48:13;;;;;;;3.30;1.70;;;14.20;99.90;;;;;;5089288;28;20960;-78
2023/10/24 03:50:40;;;;;;;3.80;2.00;;;14.20;99.90;;;;;;5094929;28;20446;-78
2023/10/24 03:53:08;;;;;;;2.57;1.73;;;14.20;99.90;;;;;;5093927;28;20464;-80
2023/10/24 03:55:35;;;;;;;2.57;1.60;;;14.30;99.90;;;;;;5092127;28;20468;-79
2023/10/24 03:58:04;;;;;;;5.17;2.40;;;14.20;99.90;;;;;;5093489;28;20461;-79
2023/10/24 04:00:30;;;;;;;3.97;1.90;;;14.10;99.90;;;;;;5099180;28;20456;-79
2023/10/24 04:02:57;;;;;;;2.40;1.90;;;14.10;99.90;;;;;;5098497;28;20877;-79
2023/10/24 04:05:24;;;;;;;2.17;1.60;;;14.10;99.90;;;;;;5083258;28;20514;-78
2023/10/24 04:07:51;;;;;;;3.60;1.70;;;14.10;99.90;;;;;;5091434;28;20464;-78
2023/10/24 04:10:18;;;;;;;6.37;2.30;;;14.10;99.90;;;;;;5093076;28;20479;-80
2023/10/24 04:12:45;;;;;;;4.60;1.77;;;14.00;99.90;;;;;;5097074;28;20467;-80
2023/10/24 04:15:13;;;;;;;3.07;1.93;;;14.10;99.90;;;;;;5098282;28;20447;-79
2023/10/24 04:17:40;;;;;;;2.70;2.27;;;14.10;99.90;;;;;;5093168;28;20461;-78
2023/10/24 04:20:08;;;;;;;4.40;2.20;;;14.00;99.90;;;;;;5092860;28;20469;-79
2023/10/24 04:22:35;;;;;;;2.37;2.00;;;13.90;99.90;;;;;;5084689;28;20494;-79
2023/10/24 04:25:02;;;;;;;2.50;1.83;;;13.90;99.90;;;;;;5078574;28;20993;-79
2023/10/24 04:27:29;;;;;;;2.57;1.77;;;13.90;99.90;;;;;;5084104;28;20457;-79
2023/10/24 04:29:56;;;;;;;4.23;2.13;;;14.00;99.90;;;;;;5089369;28;20825;-79
2023/10/24 04:32:24;;;;;;;3.03;1.73;;;13.90;99.90;;;;;;5088784;28;20598;-76
2023/10/24 04:34:51;;;;;;;2.87;2.07;;;13.90;99.90;;;;;;5079168;28;20457;-78
2023/10/24 04:37:18;;;;;;;4.63;2.17;;;13.90;99.90;;;;;;5092069;28;20455;-77
2023/10/24 04:39:45;;;;;;;2.73;1.80;;;13.90;99.90;;;;;;5095995;28;20454;-78
2023/10/24 04:42:12;;;;;;;4.67;1.87;;;13.90;99.90;;;;;;5089886;28;20839;-79
2023/10/24 04:44:39;;;;;;;1.67;1.30;;;13.90;99.90;;;;;;5096997;28;20458;-78
2023/10/24 04:47:06;;;;;;;4.70;1.73;;;13.90;99.90;;;;;;5096419;28;20452;-77
2023/10/24 04:49:37;;;;;;;3.13;1.90;;;14.00;99.90;;;;;;5097436;28;20453;-83
2023/10/24 04:52:04;;;;;;;2.97;1.50;;;13.90;99.90;;;;;;5082955;28;20442;-80
2023/10/24 04:54:31;;;;;;;2.00;1.40;;;13.90;99.90;;;;;;5078155;28;20538;-79
2023/10/24 04:56:59;;;;;;;2.23;1.50;;;13.90;99.90;;;;;;5073773;28;20449;-81
2023/10/24 04:59:26;;;;;;;2.63;1.60;;;13.90;99.90;;;;;;5092017;28;20489;-82
2023/10/24 05:01:53;;;;;;;3.10;1.60;;;13.90;99.90;;;;;;5088083;28;20480;-80
2023/10/24 05:04:20;;;;;;;3.40;2.17;;;13.90;99.90;;;;;;5097066;28;20468;-81
2023/10/24 05:06:51;;;;;;;2.80;1.80;;;13.80;99.90;;;;;;5084861;28;20472;-77
2023/10/24 05:09:18;;;;;;;4.30;1.83;;;13.90;99.90;;;;;;5076910;28;20443;-79
2023/10/24 05:11:45;;;;;;;3.10;2.10;;;13.90;99.90;;;;;;5076929;28;20566;-79
2023/10/24 05:14:12;;;;;;;3.27;1.67;;;13.90;99.90;;;;;;5087348;28;20473;-78
2023/10/24 05:16:39;;;;;;;3.70;1.90;;;13.90;99.90;;;;;;5082092;28;20463;-79
2023/10/24 05:19:06;;;;;;;2.97;1.80;;;13.90;99.90;;;;;;5072903;28;20457;-77
2023/10/24 05:21:33;;;;;;;3.20;1.73;;;13.80;99.90;;;;;;5083168;28;20451;-78
2023/10/24 05:24:01;;;;;;;2.60;1.70;;;13.80;99.90;;;;;;5094762;28;20545;-78
2023/10/24 05:26:28;;;;;;;2.93;1.70;;;13.80;99.90;;;;;;5085672;28;20444;-78
2023/10/24 05:28:54;;;;;;;3.03;1.63;;;13.90;99.90;;;;;;5080625;28;20819;-78
2023/10/24 05:31:22;;;;;;;4.17;1.60;;;13.80;99.90;;;;;;5079451;28;20487;-79
2023/10/24 05:33:49;;;;;;;3.93;1.90;;;13.70;99.90;;;;;;5101119;28;20474;-77
2023/10/24 05:36:17;;;;;;;3.40;1.33;;;13.70;99.90;;;;;;5091911;28;20968;-77
2023/10/24 05:38:44;;;;;;;2.40;1.57;;;13.70;99.90;;;;;;5086321;28;20453;-77
2023/10/24 05:41:12;;;;;;;3.70;2.10;;;13.80;99.90;;;;;;5092412;28;20451;-77
2023/10/24 05:43:39;;;;;;;2.63;1.27;;;13.70;99.90;;;;;;5085100;28;20515;-78
2023/10/24 05:46:06;;;;;;;2.27;1.53;;;13.70;99.90;;;;;;5086770;28;20980;-77
2023/10/24 05:48:33;;;;;;;2.63;1.50;;;13.70;99.90;;;;;;5090858;28;20873;-77
2023/10/24 05:51:00;;;;;;;2.57;1.53;;;13.70;99.90;;;;;;5093329;28;20461;-76
2023/10/24 05:53:26;;;;;;;2.53;1.50;;;13.70;99.90;;;;;;5090548;28;20462;-77
2023/10/24 05:55:53;;;;;;;4.13;1.90;;;13.60;99.90;;;;;;5091504;28;20458;-76
2023/10/24 05:58:23;;;;;;;6.80;2.10;;;13.60;99.90;;;;;;5091937;28;20451;-78
2023/10/24 06:00:49;;;;;;;3.90;1.87;;;13.50;99.90;;;;;;5087355;28;20904;-78
2023/10/24 06:03:16;;;;;;;2.77;1.43;;;13.50;99.90;;;;;;5091475;28;20490;-78
2023/10/24 06:05:43;;;;;;;2.20;1.60;;;13.60;99.90;;;;;;5082717;28;20465;-77
2023/10/24 06:08:10;;;;;;;1.90;1.27;;;13.60;99.90;;;;;;5084195;28;20463;-77
2023/10/24 06:10:37;;;;;;;3.40;1.50;;;13.60;99.90;;;;;;5088140;28;20470;-77
2023/10/24 06:13:04;;;;;;;5.30;1.70;;;13.60;99.90;;;;;;5090133;28;20519;-76
2023/10/24 06:15:32;;;;;;;3.50;1.50;;;13.50;99.90;;;;;;5079271;28;20455;-76
2023/10/24 06:17:59;;;;;;;2.07;1.27;;;13.50;99.90;;;;;;5066560;28;20836;-75
2023/10/24 06:20:25;;;;;;;3.90;1.43;;;13.50;99.90;;;;;;5078695;28;20465;-77
2023/10/24 06:22:52;;;;;;;2.70;1.60;;;13.60;99.90;;;;;;5080612;28;20501;-77
2023/10/24 06:25:19;;;;;;;2.53;1.33;;;13.50;99.90;;;;;;5092237;28;20456;-77
2023/10/24 06:27:46;;;;;;;2.57;1.70;;;13.50;99.90;;;;;;5074226;28;20556;-78
2023/10/24 06:30:13;;;;;;;2.37;1.77;;;13.60;99.90;;;;;;5070866;28;20458;-77
2023/10/24 06:32:41;;;;;;;1.97;1.43;;;13.60;99.90;;;;;;5068756;28;20481;-76
2023/10/24 06:35:09;;;;;;;2.10;1.57;;;13.60;99.90;;;;;;5069682;28;20453;-77
2023/10/24 06:37:36;;;;;;;2.00;1.50;;;13.70;99.90;;;;;;5070232;28;20458;-77
2023/10/24 06:40:04;;;;;;;2.77;2.00;;;13.70;99.90;;;;;;5071617;28;20451;-76
2023/10/24 06:42:31;;;;;;;3.60;1.80;;;13.60;99.90;;;;;;5072416;28;20516;-77
2023/10/24 06:44:58;;;;;;;5.70;1.57;;;13.70;99.90;;;;;;5074682;28;20955;-76
2023/10/24 06:47:24;;;;;;;2.63;1.37;;;13.70;99.90;;;;;;5065823;28;20450;-76
2023/10/24 06:49:53;;;;;;;3.40;1.77;;;13.70;99.90;;;;;;5069760;28;20818;-77
2023/10/24 06:52:19;;;;;;;3.70;1.93;;;13.70;99.90;;;;;;5066328;28;20469;-77
2023/10/24 06:54:46;;;;;;;3.50;1.67;;;13.70;99.90;;;;;;5070578;28;20447;-77
2023/10/24 06:57:13;;;;;;;3.50;2.03;;;13.70;99.90;;;;;;5068433;28;20450;-76
2023/10/24 06:59:40;;;;;;;3.40;1.30;;;13.70;99.90;;;;;;5065665;28;21032;-77
2023/10/24 07:02:07;;;;;;;4.40;1.50;;;13.60;99.90;;;;;;5068832;28;21329;-76
2023/10/24 07:04:33;;;;;;;3.20;1.93;;;13.60;99.90;;;;;;5073161;28;20448;-77
2023/10/24 07:07:02;;;;;;;2.63;1.20;;;13.70;99.90;;;;;;5065726;28;20499;-76
2023/10/24 07:09:28;;;;;;;3.47;1.20;;;13.70;99.90;;;;;;5067416;28;20447;-76
2023/10/24 07:11:55;;;;;;;2.13;1.40;;;13.70;99.90;;;;;;5070953;28;20462;-76
2023/10/24 07:14:22;;;;;;;2.90;1.37;;;13.70;99.90;;;;;;5067598;28;20466;-77
2023/10/24 07:16:51;;;;;;;4.40;1.30;;;13.60;99.90;;;;;;5069383;28;20471;-77
2023/10/24 07:19:18;;;;;;;2.13;1.30;;;13.70;99.90;;;;;;5069516;28;20458;-77
2023/10/24 07:21:44;;;;;;;2.83;1.20;;;13.80;99.90;;;;;;5074328;28;20523;-77
2023/10/24 07:24:13;;;;;;;2.60;1.20;;;13.80;99.90;;;;;;5074202;28;20573;-77
2023/10/24 07:26:40;;;;;;;2.90;1.50;;;13.80;99.90;;;;;;5070170;28;20457;-76
2023/10/24 07:29:07;;;;;;;1.70;1.27;;;13.80;99.90;;;;;;5069751;28;20528;-77
2023/10/24 07:31:34;;;;;;;2.13;1.37;;;13.90;99.90;;;;;;5071361;28;20840;-76
2023/10/24 07:34:00;;;;;;;2.60;1.37;;;13.90;99.90;;;;;;5070967;28;20471;-76
2023/10/24 07:36:30;;;;;;;5.03;1.50;;;13.90;99.90;;;;;;5072321;28;20467;-77
2023/10/24 07:39:00;;;;;;;4.73;1.87;;;13.80;99.90;;;;;;5072648;28;20534;-76
2023/10/24 07:41:28;;;;;;;3.40;1.60;;;13.90;99.90;;;;;;5073146;28;20439;-75
2023/10/24 07:43:55;;;;;;;3.83;2.40;;;13.90;99.90;;;;;;5074253;28;20917;-77
2023/10/24 07:46:22;;;;;;;3.27;1.90;;;13.80;99.90;;;;;;5070559;28;20449;-77
2023/10/24 07:48:51;;;;;;;3.90;2.30;;;13.90;99.90;;;;;;5074122;28;20462;-77
2023/10/24 07:51:18;;;;;;;2.33;1.57;;;14.00;99.90;;;;;;5085142;28;20503;-76
2023/10/24 07:53:45;;;;;;;6.20;1.50;;;14.00;99.90;;;;;;5074186;28;20982;-76
2023/10/24 07:56:11;;;;;;;3.57;2.20;;;14.00;99.90;;;;;;5080227;28;20454;-77
2023/10/24 07:58:40;;;;;;;2.20;1.20;;;14.00;99.90;;;;;;5082230;28;21007;-76
2023/10/24 08:01:06;;;;;;;4.47;2.13;;;13.90;99.90;;;;;;5083475;28;20459;-76
2023/10/24 08:03:33;;;;;;;3.90;1.90;;;13.90;99.90;;;;;;5083698;28;20503;-76
2023/10/24 08:06:00;;;;;;;2.77;1.83;;;13.90;99.90;;;;;;5090691;28;20474;-76
2023/10/24 08:08:28;;;;;;;4.37;1.60;;;13.90;99.90;;;;;;5081484;28;20857;-76
2023/10/24 08:10:55;;;;;;;3.30;1.50;;;13.90;99.90;;;;;;5075397;28;20453;-77
2023/10/24 08:13:22;;;;;;;3.60;1.57;;;14.00;99.90;;;;;;5091258;28;20469;-77
2023/10/24 08:15:51;;;;;;;2.50;1.63;;;13.90;99.90;;;;;;5081262;28;20538;-76
2023/10/24 08:18:18;;;;;;;5.03;1.70;;;13.90;99.90;;;;;;5082664;28;20472;-77
2023/10/24 08:20:45;;;;;;;3.40;1.30;;;14.00;99.90;;;;;;5080548;28;20454;-77
2023/10/24 08:23:12;;;;;;;2.30;1.40;;;13.90;86.60;;;;;;5093673;28;21278;-77
2023/10/24 08:25:39;;;;;;;2.60;1.30;;;14.00;97.10;;;;;;5092781;28;20471;-76
2023/10/24 08:28:07;;;;;;;2.53;1.40;;;14.00;97.70;;;;;;5087405;28;20487;-77
2023/10/24 08:30:34;;;;;;;2.60;1.40;;;14.10;99.90;;;;;;5074375;28;20892;-77
2023/10/24 08:33:03;;;;;;;3.70;1.63;;;14.10;99.90;;;;;;5080724;28;20470;-76
2023/10/24 08:35:29;;;;;;;2.37;1.20;;;14.10;99.90;;;;;;5089258;28;20455;-77
2023/10/24 08:37:56;;;;;;;2.83;1.50;;;14.10;99.90;;;;;;5086221;28;20462;-76
2023/10/24 08:40:23;;;;;;;4.47;1.50;;;14.10;99.90;;;;;;5073718;28;20973;-78
2023/10/24 08:42:50;;;;;;;5.93;1.40;;;14.10;98.20;;;;;;5083512;28;20482;-78
2023/10/24 08:45:18;;;;;;;3.30;1.27;;;14.10;99.90;;;;;;5083287;28;20934;-78
2023/10/24 08:47:47;;;;;;;50.93;25.30;;;14.10;99.90;;;;;;5087121;28;20444;-78
2023/10/24 08:50:16;;;;;;;8.30;4.53;;;14.00;99.90;;;;;;5087854;28;20463;-75
2023/10/24 08:52:45;;;;;;;6.60;3.17;;;14.10;99.90;;;;;;5077695;28;20944;-77
2023/10/24 08:55:12;;;;;;;3.60;1.50;;;14.10;99.90;;;;;;5083260;28;20455;-79
2023/10/24 08:57:41;;;;;;;5.60;1.60;;;14.20;99.90;;;;;;5094073;28;20462;-78
2023/10/24 09:00:10;;;;;;;2.60;1.70;;;14.20;99.90;;;;;;5084465;28;20516;-77
2023/10/24 09:02:38;;;;;;;6.00;1.60;;;14.20;99.90;;;;;;5082953;28;20989;-79
2023/10/24 09:05:06;;;;;;;4.23;1.10;;;14.20;99.90;;;;;;5084154;28;20448;-79
2023/10/24 09:07:35;;;;;;;3.07;1.40;;;14.20;99.90;;;;;;5083771;28;20468;-78
2023/10/24 09:10:02;;;;;;;2.67;1.40;;;14.20;81.00;;;;;;5074923;28;20544;-79
2023/10/24 09:12:30;;;;;;;2.57;1.40;;;14.10;70.00;;;;;;5080300;28;20471;-79
2023/10/24 09:14:59;;;;;;;2.00;1.30;;;14.10;44.10;;;;;;5081756;28;20445;-78
2023/10/24 09:17:26;;;;;;;2.73;1.57;;;14.10;64.70;;;;;;5094493;28;20452;-78
2023/10/24 09:19:56;;;;;;;3.00;1.50;;;14.10;51.70;;;;;;5089748;28;20445;-79
2023/10/24 09:22:23;;;;;;;2.60;1.40;;;14.30;51.70;;;;;;5091582;28;20596;-79
2023/10/24 09:24:51;;;;;;;2.43;1.57;;;14.30;39.90;;;;;;5094233;28;21052;-78
2023/10/24 09:27:23;;;;;;;4.00;1.97;;;14.30;53.00;;;;;;5090917;28;20444;-78
2023/10/24 09:29:50;;;;;;;2.33;1.70;;;14.30;28.40;;;;;;5094939;28;20485;-78
2023/10/24 09:32:18;;;;;;;2.73;1.50;;;14.40;47.40;;;;;;5077753;28;20605;-77
2023/10/24 09:34:46;;;;;;;3.47;1.73;;;14.50;45.60;;;;;;5089734;28;20449;-79
2023/10/24 09:37:13;;;;;;;2.63;1.63;;;14.50;30.10;;;;;;5080663;28;20466;-77
2023/10/24 09:39:55;;;;;;;4.90;1.37;;;14.50;23.80;;;;;;5081223;28;20460;-79
2023/10/24 09:42:27;;;;;;;2.53;1.50;;;14.60;21.80;;;;;;5091299;28;20969;-79
2023/10/24 09:44:56;;;;;;;7.30;2.13;;;14.50;7.50;;;;;;5096280;28;20921;-78
2023/10/24 09:47:24;;;;;;;3.07;1.80;;;14.50;1.00;;;;;;5091698;28;21002;-77
2023/10/24 09:49:52;;;;;;;3.17;1.50;;;14.60;30.00;;;;;;5083027;28;20447;-78
2023/10/24 09:52:20;;;;;;;2.33;1.60;;;14.60;22.70;;;;;;5077289;28;20489;-78
2023/10/24 09:54:49;;;;;;;2.73;1.77;;;14.60;8.70;;;;;;5081706;28;20460;-79
2023/10/24 09:57:19;;;;;;;2.30;1.37;;;14.60;1.00;;;;;;5072845;28;20462;-78
2023/10/24 09:59:47;;;;;;;2.97;1.63;;;14.70;14.80;;;;;;5092090;28;20456;-79
2023/10/24 10:02:14;;;;;;;7.17;1.67;;;14.70;45.40;;;;;;5094411;28;20450;-79
2023/10/24 10:04:42;;;;;;;3.63;1.70;;;14.90;66.80;;;;;;5077782;28;20511;-79
2023/10/24 10:07:12;;;;;;;2.27;1.20;;;14.90;40.90;;;;;;5070476;28;20463;-79
2023/10/24 10:09:43;;;;;;;4.23;1.20;;;14.90;13.60;;;;;;5074714;28;20461;-79
2023/10/24 10:12:13;;;;;;;3.70;1.40;;;15.00;1.00;;;;;;5083731;28;20446;-79
2023/10/24 10:14:51;;;;;;;3.20;1.60;;;15.10;1.00;;;;;;5077033;28;20449;-79
2023/10/24 10:17:26;;;;;;;2.90;1.50;;;15.20;1.00;;;;;;5074114;28;21003;-81
2023/10/24 10:20:12;;;;;;;2.87;1.20;;;15.20;1.00;;;;;;5075695;28;20460;-80
2023/10/24 10:23:02;;;;;;;3.50;1.30;;;15.20;1.00;;;;;;5080372;28;20478;-80
2023/10/24 10:26:01;;;;;;;2.00;1.03;;;15.30;1.00;;;;;;5072463;28;20446;-78
2023/10/24 10:28:53;;;;;;;3.50;1.10;;;15.50;1.00;;;;;;5069901;28;20491;-78
2023/10/24 10:31:52;;;;;;;2.33;1.23;;;15.60;1.00;;;;;;5068077;28;20477;-79
2023/10/24 10:34:19;;;;;;;3.03;1.60;;;15.80;1.00;;;;;;5059441;28;20463;-79
2023/10/24 10:36:55;;;;;;;3.33;1.50;;;15.60;99.90;;;;;;5096158;28;20517;-77
2023/10/24 10:39:22;;;;;;;2.43;1.70;;;15.70;1.00;;;;;;5090163;28;20549;-78
2023/10/24 10:41:49;;;;;;;4.93;1.43;;;15.60;1.00;;;;;;5081386;28;20449;-78
2023/10/24 10:44:35;;;;;;;2.93;2.13;;;15.80;1.00;;;;;;5077785;28;20490;-78
2023/10/24 10:47:04;;;;;;;2.70;1.70;;;16.00;1.00;;;;;;5064833;28;20448;-78
2023/10/24 10:49:39;;;;;;;2.20;1.30;;;16.00;1.00;;;;;;5084592;28;20453;-78
2023/10/24 10:52:12;;;;;;;3.83;1.80;;;15.80;1.00;;;;;;5088668;28;20444;-78
2023/10/24 10:54:49;;;;;;;3.27;1.70;;;15.70;1.00;;;;;;5072069;28;20456;-78
2023/10/24 10:57:23;;;;;;;2.87;1.57;;;15.60;1.00;;;;;;5074927;28;20523;-78
2023/10/24 10:59:58;;;;;;;2.30;1.30;;;15.60;1.00;;;;;;5080542;28;20609;-80
2023/10/24 11:02:48;;;;;;;2.20;1.50;;;15.60;1.00;;;;;;5089141;28;20477;-78
2023/10/24 11:05:50;;;;;;;3.60;1.73;;;15.60;1.00;;;;;;5081958;28;20486;-79
2023/10/24 11:08:19;;;;;;;2.33;1.40;;;15.60;1.00;;;;;;5086158;28;20453;-78
2023/10/24 11:10:55;;;;;;;3.03;1.17;;;15.60;1.00;;;;;;5086362;28;20461;-79
2023/10/24 11:13:36;;;;;;;5.23;1.60;;;15.50;1.00;;;;;;5086650;28;20567;-78
2023/10/24 11:16:04;;;;;;;1.73;1.17;;;15.60;1.00;;;;;;5080115;28;20478;-78
2023/10/24 11:18:34;;;;;;;4.33;1.50;;;15.80;1.00;;;;;;5080872;28;20525;-78
2023/10/24 11:21:03;;;;;;;2.33;1.20;;;16.00;1.00;;;;;;5087878;28;20892;-79
2023/10/24 11:23:30;;;;;;;2.47;1.40;;;16.00;1.00;;;;;;5085153;28;20526;-78
2023/10/24 11:25:58;;;;;;;2.20;1.17;;;16.10;1.00;;;;;;5083266;28;20454;-79
2023/10/24 11:28:27;;;;;;;3.20;1.67;;;16.10;1.00;;;;;;5085084;28;20472;-79
2023/10/24 11:30:54;;;;;;;2.83;1.23;;;16.00;1.00;;;;;;5078324;28;20455;-77
2023/10/24 11:33:21;;;;;;;3.40;1.10;;;16.00;1.00;;;;;;5077898;28;20483;-79
2023/10/24 11:35:49;;;;;;;4.13;1.47;;;15.80;1.00;;;;;;5078960;28;20443;-77
2023/10/24 11:38:16;;;;;;;3.00;1.83;;;15.70;1.00;;;;;;5075376;28;20542;-79
2023/10/24 11:40:46;;;;;;;3.43;1.30;;;15.50;1.00;;;;;;5078778;28;20460;-78
2023/10/24 11:43:14;;;;;;;2.40;1.13;;;15.50;1.00;;;;;;5078251;28;20510;-78
2023/10/24 11:45:42;;;;;;;2.87;1.53;;;15.50;1.00;;;;;;5076077;28;20491;-79
2023/10/24 11:48:10;;;;;;;3.30;1.30;;;15.40;1.00;;;;;;5077579;28;20474;-78
2023/10/24 11:50:42;;;;;;;2.43;1.40;;;15.40;1.00;;;;;;5079715;28;20526;-79
2023/10/24 11:53:11;;;;;;;3.13;1.77;;;15.50;1.00;;;;;;5077499;28;20474;-79
2023/10/24 11:55:38;;;;;;;2.47;1.40;;;15.70;1.00;;;;;;5077929;28;20463;-79
2023/10/24 11:58:09;;;;;;;2.97;1.40;;;15.90;1.00;;;;;;5075483;28;20450;-79
2023/10/24 12:00:38;;;;;;;2.43;1.60;;;16.00;1.00;;;;;;5075955;28;20447;-79
2023/10/24 12:03:07;;;;;;;2.33;1.40;;;16.00;1.00;;;;;;5077356;28;20482;-79
2023/10/24 12:05:34;;;;;;;2.77;1.53;;;15.90;1.00;;;;;;5076785;28;20491;-80
2023/10/24 12:08:02;;;;;;;3.00;1.20;;;15.80;1.00;;;;;;5078763;28;20524;-79
2023/10/24 12:10:31;;;;;;;3.27;1.40;;;15.70;1.00;;;;;;5078448;28;20941;-78
2023/10/24 12:12:58;;;;;;;1.90;1.33;;;15.70;1.00;;;;;;5073285;28;20473;-79
2023/10/24 12:15:26;;;;;;;1.97;1.30;;;15.70;1.00;;;;;;5076995;28;20443;-79
2023/10/24 12:17:54;;;;;;;3.60;1.80;;;15.80;1.00;;;;;;5076964;28;20446;-78
2023/10/24 12:20:21;;;;;;;4.87;2.10;;;15.80;1.00;;;;;;5074830;28;20641;-79
2023/10/24 12:22:48;;;;;;;3.00;1.77;;;15.80;1.00;;;;;;5076656;28;20473;-79
2023/10/24 12:25:16;;;;;;;4.33;2.50;;;15.80;1.00;;;;;;5077619;28;20529;-78
2023/10/24 12:27:44;;;;;;;3.70;2.17;;;15.60;1.00;;;;;;5076094;28;20477;-79
2023/10/24 12:30:12;;;;;;;3.27;1.80;;;15.50;1.00;;;;;;5073722;28;20494;-77
2023/10/24 12:32:39;;;;;;;2.10;1.37;;;15.50;1.00;;;;;;5078612;28;21027;-80
2023/10/24 12:35:06;;;;;;;3.00;1.60;;;15.30;1.00;;;;;;5077010;28;20455;-77
2023/10/24 12:37:34;;;;;;;3.80;1.50;;;15.20;1.00;;;;;;5073079;28;20512;-78
2023/10/24 12:40:02;;;;;;;8.40;2.80;;;15.20;1.00;;;;;;5073501;28;20446;-79
2023/10/24 12:42:29;;;;;;;4.00;2.50;;;15.10;2.20;;;;;;5079819;28;20484;-85
2023/10/24 12:44:57;;;;;;;6.57;3.47;;;14.90;92.60;;;;;;5079771;28;20569;-78
2023/10/24 12:47:24;;;;;;;3.80;2.60;;;14.80;99.90;;;;;;5077641;28;20455;-78
2023/10/24 12:49:51;;;;;;;4.60;2.83;;;14.60;99.90;;;;;;5066017;28;20459;-78
2023/10/24 12:52:18;;;;;;;2.83;2.23;;;14.60;99.90;;;;;;5075186;28;21137;-78
2023/10/24 12:54:45;;;;;;;4.20;2.30;;;14.50;99.90;;;;;;5073225;28;20480;-78